Azalea Ace — A8ZJ6 — position and weather

sailwx.info

Track history (hours):
 
Tides and Currents Weather Stations Pressure Air Temp Water Temp Dewpoint Dewpoint Depression Visibility Wind Speed Wind Dir Waves Ship Positions

Azalea Ace

Last reported at 2018-May-16 08:07 UTC. Time now 2018-May-24 14:05 UTC.
Position N 32°33' W 117°49'.
Warning: this ship's position is 8 days out of date.

Length 180 m; draft 8.3 m.

Type: Cargo ship. MMSI: 636015228.

Date/timePositionNaut miles runAvg speedWind from/ knotsBaromVisibWave heightAir tempDewpointWater temp
2018-May-16 08:07N 32°33' W 117°49'216.3
2018-May-16 08:00N 32°34' W 117°48'815.9
2018-May-16 07:30N 32°42' W 117°51'816.1
2018-May-16 07:00N 32°50' W 117°54'815.8
2018-May-16 06:30N 32°57' W 117°57'815.3
2018-May-16 06:00N 33°04' W 118°00'612.2
2018-May-16 05:30N 33°10' W 118°03'611.6
2018-May-16 05:00N 33°16' W 118°05'611.6
2018-May-16 04:30N 33°21' W 118°07'611.7
2018-May-16 04:00N 33°27' W 118°10'611.4
2018-May-16 03:30N 33°32' W 118°12'611.7
2018-May-16 03:00N 33°38' W 118°14'510.6
2018-May-16 02:30N 33°43' W 118°15'3 6.1
2018-May-16 02:00N 33°46' W 118°15'0 0.6
2018-May-16 01:29N 33°46' W 118°15'0 0.0
2018-May-16 00:59N 33°46' W 118°15'0 0.0
2018-May-16 00:29N 33°46' W 118°15'0 0.0
2018-May-15 23:59N 33°46' W 118°15'0 0.0
2018-May-15 23:29N 33°46' W 118°15'0 0.0
2018-May-15 22:59N 33°46' W 118°15'0 0.0
2018-May-15 22:29N 33°46' W 118°15'0 0.0
2018-May-15 21:59N 33°46' W 118°15'0 0.0
2018-May-15 21:29N 33°46' W 118°15'0 0.0
2018-May-15 20:59N 33°46' W 118°15'0 0.0
2018-May-15 20:29N 33°46' W 118°15'0 0.0
2018-May-15 19:59N 33°46' W 118°15'0 0.0
2018-May-15 19:29N 33°46' W 118°15'0 0.0
2018-May-15 18:59N 33°46' W 118°15'0 0.0
2018-May-15 18:29N 33°46' W 118°15'0 0.0
2018-May-15 17:59N 33°46' W 118°15'0 0.0
2018-May-15 17:29N 33°46' W 118°15'0 0.0
2018-May-15 16:59N 33°46' W 118°15'0 0.0
2018-May-15 16:29N 33°46' W 118°15'0 0.0
2018-May-15 15:59N 33°46' W 118°15'0 0.0
2018-May-15 15:29N 33°46' W 118°15'0 0.0
2018-May-15 14:59N 33°46' W 118°15'0 0.0
2018-May-15 14:29N 33°46' W 118°15'0 0.0
2018-May-15 13:59N 33°46' W 118°15'0 0.0
2018-May-15 13:29N 33°46' W 118°15'0 0.0
2018-May-15 12:59N 33°46' W 118°15'0 0.0
2018-May-15 12:29N 33°46' W 118°15'0 0.0
2018-May-15 11:59N 33°46' W 118°15'0 0.0
2018-May-15 11:29N 33°46' W 118°15'0 0.0
2018-May-15 10:56N 33°46' W 118°15'0 0.0
2018-May-15 10:29N 33°46' W 118°15'0 0.0
2018-May-15 09:59N 33°46' W 118°15'0 0.0
2018-May-15 09:29N 33°46' W 118°15'0 0.0
2018-May-15 08:59N 33°46' W 118°15'0 0.0
2018-May-15 08:26N 33°46' W 118°15'0 0.0
2018-May-15 07:59N 33°46' W 118°15'0 0.0
2018-May-15 07:29N 33°46' W 118°15'0 0.0
2018-May-15 06:59N 33°46' W 118°15'0 0.0
2018-May-15 06:29N 33°46' W 118°15'0 0.0
2018-May-15 05:59N 33°46' W 118°15'0 0.0
2018-May-15 05:29N 33°46' W 118°15'0 0.0
2018-May-15 05:00N 33°46' W 118°15'1 2.2
2018-May-15 04:30N 33°45' W 118°16'3 5.2
2018-May-15 04:00N 33°43' W 118°15'2 3.0
2018-May-15 03:25N 33°43' W 118°13'0 0.0
2018-May-15 02:58N 33°43' W 118°13'0 0.1
2018-May-15 02:28N 33°43' W 118°13'0 0.0
2018-May-15 01:58N 33°43' W 118°13'0 0.1
2018-May-15 01:25N 33°43' W 118°13'0 0.1
2018-May-15 00:58N 33°43' W 118°13'0 0.0
2018-May-15 00:28N 33°43' W 118°13'0 0.1
2018-May-14 23:58N 33°43' W 118°13'0 0.1
2018-May-14 23:25N 33°43' W 118°13'0 0.0
2018-May-14 22:55N 33°43' W 118°13'0 0.1
2018-May-14 22:28N 33°43' W 118°13'0 0.1
2018-May-14 21:58N 33°43' W 118°13'0 0.1
2018-May-14 21:28N 33°43' W 118°13'0 0.1
2018-May-14 20:58N 33°43' W 118°13'0 0.0
2018-May-14 16:22N 33°43' W 118°13'0 0.0
2018-May-14 14:55N 33°43' W 118°13'0 0.0
2018-May-14 14:28N 33°43' W 118°13'0 0.0
2018-May-14 13:55N 33°43' W 118°13'0 0.0
2018-May-14 13:28N 33°43' W 118°13'0 0.0
2018-May-14 12:58N 33°43' W 118°13'0 0.0
2018-May-14 12:28N 33°43' W 118°13'0 0.0
2018-May-14 11:55N 33°43' W 118°13'0 0.0
2018-May-14 11:28N 33°43' W 118°13'0 0.0
2018-May-14 10:58N 33°43' W 118°13'0 0.0
2018-May-14 10:28N 33°43' W 118°13'0 0.0
2018-May-14 09:58N 33°43' W 118°13'0 0.0
2018-May-14 09:28N 33°43' W 118°13'0 0.0
2018-May-14 08:58N 33°43' W 118°13'0 0.0
2018-May-14 08:28N 33°43' W 118°13'0 0.0
2018-May-14 07:55N 33°43' W 118°13'0 0.0
2018-May-14 07:28N 33°43' W 118°13'0 0.0
2018-May-14 06:58N 33°43' W 118°13'0 0.0
2018-May-14 06:28N 33°43' W 118°13'0 0.0
2018-May-14 05:58N 33°43' W 118°13'0 0.0
2018-May-14 05:25N 33°43' W 118°13'0 0.1
2018-May-14 04:58N 33°43' W 118°13'0 0.0
2018-May-14 04:28N 33°43' W 118°13'0 0.1
2018-May-14 03:58N 33°43' W 118°13'0 0.0
2018-May-14 03:28N 33°43' W 118°13'0 0.1
2018-May-14 02:58N 33°43' W 118°13'0 0.0
2018-May-14 02:28N 33°43' W 118°13'0 0.1
2018-May-14 01:58N 33°43' W 118°13'0 0.1
2018-May-14 01:28N 33°43' W 118°13'0 0.1
2018-May-14 00:58N 33°43' W 118°13'0 0.0
2018-May-14 00:28N 33°43' W 118°13'0 0.2
2018-May-13 23:58N 33°43' W 118°13'0 0.1
2018-May-13 23:28N 33°43' W 118°13'0 0.1
2018-May-13 22:58N 33°43' W 118°13'0 0.0
2018-May-13 22:28N 33°43' W 118°13'0 0.1
2018-May-13 21:58N 33°43' W 118°13'0 0.1
2018-May-13 21:28N 33°43' W 118°13'0 0.0
2018-May-13 20:58N 33°43' W 118°13'0 0.0
2018-May-13 20:28N 33°43' W 118°13'0 0.0
2018-May-13 19:58N 33°43' W 118°13'0 0.0
2018-May-13 19:28N 33°43' W 118°13'0 0.0
2018-May-13 18:58N 33°43' W 118°13'0 0.0
2018-May-13 18:28N 33°43' W 118°13'0 0.0
2018-May-13 17:58N 33°43' W 118°13'0 0.0
2018-May-13 17:25N 33°43' W 118°13'0 0.0
2018-May-13 16:58N 33°43' W 118°13'0 0.1
2018-May-13 16:28N 33°43' W 118°13'0 0.1
2018-May-13 15:58N 33°43' W 118°13'0 0.0
2018-May-13 15:28N 33°43' W 118°13'0 0.0
2018-May-13 14:58N 33°43' W 118°13'0 0.0
2018-May-13 14:28N 33°43' W 118°13'0 0.0
2018-May-13 13:58N 33°43' W 118°13'0 0.0
2018-May-13 13:28N 33°43' W 118°13'0 0.0
2018-May-13 12:58N 33°43' W 118°13'0 0.0
2018-May-13 12:28N 33°43' W 118°13'0 0.1
2018-May-13 11:58N 33°43' W 118°13'0 0.0
2018-May-13 11:28N 33°43' W 118°13'0 0.0
2018-May-13 10:58N 33°43' W 118°13'0 0.0
2018-May-13 10:28N 33°43' W 118°13'0 0.0
2018-May-13 09:58N 33°43' W 118°13'0 0.0
2018-May-13 09:28N 33°43' W 118°13'0 0.0
2018-May-13 08:55N 33°43' W 118°13'0 0.1
2018-May-13 08:28N 33°43' W 118°13'0 0.5
2018-May-13 08:00N 33°42' W 118°13'2 4.3
2018-May-13 07:30N 33°40' W 118°12'2610.8
2018-May-13 05:08N 33°17' W 117°60'111.4
2018-May-13 05:00N 33°16' W 117°59'611.8
2018-May-13 04:30N 33°11' W 117°54'611.9
2018-May-13 04:00N 33°07' W 117°49'612.9
2018-May-13 03:30N 33°02' W 117°44'612.7
2018-May-13 03:00N 32°58' W 117°39'612.7
2018-May-13 02:30N 32°53' W 117°34'612.2
2018-May-13 02:00N 32°48' W 117°29'611.4
2018-May-13 01:30N 32°44' W 117°24'611.4
2018-May-13 01:00N 32°40' W 117°20'11 0.5
2018-May-12 01:15N 32°39' W 117°07'5 4.2
2018-May-11 23:57N 32°40' W 117°14'6 0.6
2018-May-11 13:03N 32°38' W 117°21'010.1
2018-May-11 13:00N 32°38' W 117°21'510.5
2018-May-11 12:30N 32°41' W 117°27'611.2
2018-May-11 12:00N 32°43' W 117°32'611.2
2018-May-11 11:30N 32°46' W 117°38'611.0
2018-May-11 11:00N 32°48' W 117°44'4 8.4
2018-May-11 10:30N 32°50' W 117°49'611.9
2018-May-11 10:00N 32°52' W 117°55'611.6
2018-May-11 09:29N 32°55' W 118°02'611.9
2018-May-11 09:00N 32°58' W 118°08'612.1
2018-May-11 08:30N 33°00' W 118°14'3512.3
2018-May-11 05:39N 33°14' W 118°53'212.7
2018-May-11 05:30N 33°15' W 118°55'612.9
2018-May-11 05:00N 33°17' W 119°02'612.9
2018-May-11 04:30N 33°19' W 119°09'712.9
2018-May-11 04:00N 33°22' W 119°17'713.1
2018-May-11 03:30N 33°24' W 119°24'712.9
2018-May-11 03:00N 33°26' W 119°31'612.9
2018-May-11 02:30N 33°29' W 119°38'612.3
2018-May-11 02:00N 33°30' W 119°45'712.3
2018-May-11 01:27N 33°31' W 119°53'612.2
2018-May-11 00:59N 33°32' W 120°00'612.1
2018-May-11 00:30N 33°33' W 120°07'712.4
2018-May-10 23:55N 33°35' W 120°15'512.8
2018-May-10 23:30N 33°37' W 120°21'612.6
2018-May-10 23:00N 33°40' W 120°28'612.9
2018-May-10 22:30N 33°42' W 120°35'713.0
2018-May-10 22:00N 33°45' W 120°42'713.3
2018-May-10 21:29N 33°48' W 120°50'713.6
2018-May-10 21:00N 33°53' W 120°56'713.6
2018-May-10 20:30N 33°58' W 121°01'613.2
2018-May-10 20:00N 34°03' W 121°05'714.8
2018-May-10 19:30N 34°09' W 121°11'815.1
2018-May-10 19:01N 34°15' W 121°16'815.2
2018-May-10 18:30N 34°21' W 121°22'714.9
2018-May-10 18:00N 34°27' W 121°28'814.8
2018-May-10 17:30N 34°32' W 121°34'714.8
2018-May-10 17:00N 34°38' W 121°39'815.2
2018-May-10 16:30N 34°44' W 121°45'815.2
2018-May-10 16:00N 34°50' W 121°51'18114.7
2018-May-10 03:40N 37°29' W 123°39'315.3
2018-May-10 03:26N 37°32' W 123°41'715.3
2018-May-10 03:00N 37°38' W 123°44'815.3
2018-May-10 02:31N 37°45' W 123°47'815.3
2018-May-10 02:00N 37°52' W 123°50'815.4
2018-May-10 01:31N 37°60' W 123°53'815.2
2018-May-10 01:00N 38°07' W 123°56'815.6
2018-May-10 00:30N 38°14' W 123°59'815.3
2018-May-10 00:00N 38°22' W 124°03'714.8
2018-May-09 23:30N 38°28' W 124°06'814.8
2018-May-09 22:57N 38°36' W 124°10'39215.9
2018-May-08 22:15N 45°05' W 125°18'0 0.3
2018-May-08 21:56N 45°05' W 125°18'715.5
2018-May-08 21:30N 45°12' W 125°19'815.4
2018-May-08 21:00N 45°19' W 125°19'815.5
2018-May-08 20:31N 45°27' W 125°20'815.6
2018-May-08 20:00N 45°35' W 125°20'815.7
2018-May-08 19:30N 45°43' W 125°20'815.6
2018-May-08 19:01N 45°50' W 125°21'815.9
2018-May-08 18:30N 45°58' W 125°22'1016.1
2018-May-08 17:55N 46°08' W 125°22'716.3
2018-May-08 17:30N 46°15' W 125°23'915.9
2018-May-08 16:54N 46°24' W 125°23'816.2
2018-May-08 16:24N 46°32' W 125°24'615.8
2018-May-08 16:00N 46°38' W 125°24'815.7
2018-May-08 15:30N 46°46' W 125°25'815.9
2018-May-08 15:00N 46°54' W 125°25'816.0
2018-May-08 14:29N 47°02' W 125°26'1220.9
2018-May-08 13:55N 47°14' W 125°27'4 9.1
2018-May-08 13:31N 47°18' W 125°27'815.8
2018-May-08 13:00N 47°26' W 125°27'815.7
2018-May-08 12:31N 47°34' W 125°28'815.9
2018-May-08 12:01N 47°42' W 125°29'816.1
2018-May-08 11:30N 47°50' W 125°29'816.1
2018-May-08 11:00N 47°58' W 125°30'816.1
2018-May-08 10:30N 48°05' W 125°25'1015.9
2018-May-08 09:53N 48°14' W 125°18'616.2
2018-May-08 09:30N 48°19' W 125°13'816.4
2018-May-08 09:00N 48°26' W 125°06'816.0
2018-May-08 08:30N 48°31' W 124°57'816.5
2018-May-08 08:01N 48°31' W 124°45'816.0
2018-May-08 07:31N 48°28' W 124°33'816.3
2018-May-08 07:00N 48°25' W 124°22'815.8
2018-May-08 06:30N 48°21' W 124°11'816.0
2018-May-08 06:00N 48°18' W 124°00'816.3
2018-May-08 05:30N 48°16' W 123°48'816.0
2018-May-08 05:00N 48°15' W 123°36'814.3
2018-May-08 04:25N 48°12' W 123°25'6 8.9
2018-May-08 03:42N 48°10' W 123°16'313.3
2018-May-08 03:27N 48°11' W 123°11'716.1
2018-May-08 02:59N 48°12' W 123°00'916.6
2018-May-08 02:25N 48°11' W 122°46'716.0
2018-May-08 01:59N 48°06' W 122°39'816.6
2018-May-08 01:30N 47°59' W 122°35'816.1
2018-May-08 01:00N 47°52' W 122°28'917.5
2018-May-08 00:30N 47°43' W 122°27'917.8
2018-May-08 00:00N 47°34' W 122°27'917.7
2018-May-07 23:30N 47°26' W 122°23'713.3
2018-May-07 23:00N 47°20' W 122°26'3 6.7
2018-May-07 22:30N 47°16' W 122°24'2 3.1
2018-May-07 22:00N 47°15' W 122°23'0 0.3
2018-May-07 21:30N 47°16' W 122°23'0 0.0
2018-May-07 21:00N 47°16' W 122°23'0 0.0
2018-May-07 18:42N 47°16' W 122°23'0 0.0
2018-May-07 18:30N 47°16' W 122°23'0 0.0
2018-May-07 17:54N 47°16' W 122°23'0 0.0
2018-May-07 17:27N 47°16' W 122°23'0 0.0
2018-May-07 17:00N 47°16' W 122°23'0 0.0
2018-May-07 16:27N 47°16' W 122°23'0 0.0
2018-May-07 15:57N 47°16' W 122°23'0 0.0
2018-May-07 15:27N 47°16' W 122°23'0 0.0
2018-May-07 15:00N 47°16' W 122°23'0 0.0
2018-May-07 14:27N 47°16' W 122°23'0 0.0
2018-May-07 14:00N 47°16' W 122°23'0 0.1
2018-May-07 13:24N 47°16' W 122°23'1 2.3
2018-May-07 13:00N 47°16' W 122°24'2 3.9
2018-May-07 12:31N 47°17' W 122°26'5 9.0
2018-May-07 12:00N 47°22' W 122°24'612.1
2018-May-07 11:31N 47°28' W 122°25'917.3
2018-May-07 11:01N 47°36' W 122°28'816.8
2018-May-07 10:31N 47°45' W 122°27'816.6
2018-May-07 10:00N 47°53' W 122°29'815.3
2018-May-07 09:30N 47°59' W 122°36'1015.4
2018-May-07 08:52N 48°08' W 122°42'615.8
2018-May-07 08:29N 48°11' W 122°50'917.2
2018-May-07 07:58N 48°12' W 123°03'816.2
2018-May-07 07:28N 48°11' W 123°15'17 9.9
2018-May-07 05:47N 48°13' W 123°40'3 9.5
2018-May-07 05:26N 48°13' W 123°45'4 9.8
2018-May-07 05:00N 48°13' W 123°51'713.1
2018-May-07 04:29N 48°15' W 124°01'713.8
2018-May-07 04:00N 48°18' W 124°10'714.2
2018-May-07 03:30N 48°21' W 124°20'714.0
2018-May-07 03:00N 48°24' W 124°29'713.9
2018-May-07 02:30N 48°27' W 124°39'713.6
2018-May-07 02:00N 48°29' W 124°48'713.1
2018-May-07 01:30N 48°29' W 124°58'713.2
2018-May-07 01:00N 48°29' W 125°08'713.0
2018-May-07 00:30N 48°28' W 125°18'613.0
2018-May-07 00:01N 48°28' W 125°28'613.0
2018-May-06 23:31N 48°29' W 125°38'612.9
2018-May-06 23:00N 48°29' W 125°47'612.9
2018-May-06 22:30N 48°29' W 125°57'713.4
2018-May-06 22:00N 48°29' W 126°07'713.3
2018-May-06 21:31N 48°29' W 126°17'610.9
2018-May-06 21:00N 48°29' W 126°26'0 0.5
2018-May-06 20:31N 48°29' W 126°25'1 1.1
2018-May-06 20:01N 48°28' W 126°25'4 7.8
2018-May-06 19:31N 48°26' W 126°30'713.0
2018-May-06 19:00N 48°24' W 126°39'712.7
2018-May-06 18:29N 48°24' W 126°49'613.2
2018-May-06 18:00N 48°25' W 126°58'613.0
2018-May-06 17:31N 48°27' W 127°08'713.5
2018-May-06 16:59N 48°28' W 127°18'  
Track history (hours):
 
Tides and Currents Weather Stations Pressure Air Temp Water Temp Dewpoint Dewpoint Depression Visibility Wind Speed Wind Dir Waves Ship Positions

Azalea Ace

Last reported at 2018-May-16 08:07 UTC. Time now 2018-May-24 14:05 UTC.
Position N 32°33' W 117°49'.
Warning: this ship's position is 8 days out of date.

Length 180 m; draft 8.3 m.

Type: Cargo ship. MMSI: 636015228.

Date/timePositionNaut miles runAvg speedWind from/ knotsBaromVisibWave heightAir tempDewpointWater temp
2018-May-16 08:07N 32°33' W 117°49'216.3
2018-May-16 08:00N 32°34' W 117°48'815.9
2018-May-16 07:30N 32°42' W 117°51'816.1
2018-May-16 07:00N 32°50' W 117°54'815.8
2018-May-16 06:30N 32°57' W 117°57'815.3
2018-May-16 06:00N 33°04' W 118°00'612.2
2018-May-16 05:30N 33°10' W 118°03'611.6
2018-May-16 05:00N 33°16' W 118°05'611.6
2018-May-16 04:30N 33°21' W 118°07'611.7
2018-May-16 04:00N 33°27' W 118°10'611.4
2018-May-16 03:30N 33°32' W 118°12'611.7
2018-May-16 03:00N 33°38' W 118°14'510.6
2018-May-16 02:30N 33°43' W 118°15'3 6.1
2018-May-16 02:00N 33°46' W 118°15'0 0.6
2018-May-16 01:29N 33°46' W 118°15'0 0.0
2018-May-16 00:59N 33°46' W 118°15'0 0.0
2018-May-16 00:29N 33°46' W 118°15'0 0.0
2018-May-15 23:59N 33°46' W 118°15'0 0.0
2018-May-15 23:29N 33°46' W 118°15'0 0.0
2018-May-15 22:59N 33°46' W 118°15'0 0.0
2018-May-15 22:29N 33°46' W 118°15'0 0.0
2018-May-15 21:59N 33°46' W 118°15'0 0.0
2018-May-15 21:29N 33°46' W 118°15'0 0.0
2018-May-15 20:59N 33°46' W 118°15'0 0.0
2018-May-15 20:29N 33°46' W 118°15'0 0.0
2018-May-15 19:59N 33°46' W 118°15'0 0.0
2018-May-15 19:29N 33°46' W 118°15'0 0.0
2018-May-15 18:59N 33°46' W 118°15'0 0.0
2018-May-15 18:29N 33°46' W 118°15'0 0.0
2018-May-15 17:59N 33°46' W 118°15'0 0.0
2018-May-15 17:29N 33°46' W 118°15'0 0.0
2018-May-15 16:59N 33°46' W 118°15'0 0.0
2018-May-15 16:29N 33°46' W 118°15'0 0.0
2018-May-15 15:59N 33°46' W 118°15'0 0.0
2018-May-15 15:29N 33°46' W 118°15'0 0.0
2018-May-15 14:59N 33°46' W 118°15'0 0.0
2018-May-15 14:29N 33°46' W 118°15'0 0.0
2018-May-15 13:59N 33°46' W 118°15'0 0.0
2018-May-15 13:29N 33°46' W 118°15'0 0.0
2018-May-15 12:59N 33°46' W 118°15'0 0.0
2018-May-15 12:29N 33°46' W 118°15'0 0.0
2018-May-15 11:59N 33°46' W 118°15'0 0.0
2018-May-15 11:29N 33°46' W 118°15'0 0.0
2018-May-15 10:56N 33°46' W 118°15'0 0.0
2018-May-15 10:29N 33°46' W 118°15'0 0.0
2018-May-15 09:59N 33°46' W 118°15'0 0.0
2018-May-15 09:29N 33°46' W 118°15'0 0.0
2018-May-15 08:59N 33°46' W 118°15'0 0.0
2018-May-15 08:26N 33°46' W 118°15'0 0.0
2018-May-15 07:59N 33°46' W 118°15'0 0.0
2018-May-15 07:29N 33°46' W 118°15'0 0.0
2018-May-15 06:59N 33°46' W 118°15'0 0.0
2018-May-15 06:29N 33°46' W 118°15'0 0.0
2018-May-15 05:59N 33°46' W 118°15'0 0.0
2018-May-15 05:29N 33°46' W 118°15'0 0.0
2018-May-15 05:00N 33°46' W 118°15'1 2.2
2018-May-15 04:30N 33°45' W 118°16'3 5.2
2018-May-15 04:00N 33°43' W 118°15'2 3.0
2018-May-15 03:25N 33°43' W 118°13'0 0.0
2018-May-15 02:58N 33°43' W 118°13'0 0.1
2018-May-15 02:28N 33°43' W 118°13'0 0.0
2018-May-15 01:58N 33°43' W 118°13'0 0.1
2018-May-15 01:25N 33°43' W 118°13'0 0.1
2018-May-15 00:58N 33°43' W 118°13'0 0.0
2018-May-15 00:28N 33°43' W 118°13'0 0.1
2018-May-14 23:58N 33°43' W 118°13'0 0.1
2018-May-14 23:25N 33°43' W 118°13'0 0.0
2018-May-14 22:55N 33°43' W 118°13'0 0.1
2018-May-14 22:28N 33°43' W 118°13'0 0.1
2018-May-14 21:58N 33°43' W 118°13'0 0.1
2018-May-14 21:28N 33°43' W 118°13'0 0.1
2018-May-14 20:58N 33°43' W 118°13'0 0.0
2018-May-14 16:22N 33°43' W 118°13'0 0.0
2018-May-14 14:55N 33°43' W 118°13'0 0.0
2018-May-14 14:28N 33°43' W 118°13'0 0.0
2018-May-14 13:55N 33°43' W 118°13'0 0.0
2018-May-14 13:28N 33°43' W 118°13'0 0.0
2018-May-14 12:58N 33°43' W 118°13'0 0.0
2018-May-14 12:28N 33°43' W 118°13'0 0.0
2018-May-14 11:55N 33°43' W 118°13'0 0.0
2018-May-14 11:28N 33°43' W 118°13'0 0.0
2018-May-14 10:58N 33°43' W 118°13'0 0.0
2018-May-14 10:28N 33°43' W 118°13'0 0.0
2018-May-14 09:58N 33°43' W 118°13'0 0.0
2018-May-14 09:28N 33°43' W 118°13'0 0.0
2018-May-14 08:58N 33°43' W 118°13'0 0.0
2018-May-14 08:28N 33°43' W 118°13'0 0.0
2018-May-14 07:55N 33°43' W 118°13'0 0.0
2018-May-14 07:28N 33°43' W 118°13'0 0.0
2018-May-14 06:58N 33°43' W 118°13'0 0.0
2018-May-14 06:28N 33°43' W 118°13'0 0.0
2018-May-14 05:58N 33°43' W 118°13'0 0.0
2018-May-14 05:25N 33°43' W 118°13'0 0.1
2018-May-14 04:58N 33°43' W 118°13'0 0.0
2018-May-14 04:28N 33°43' W 118°13'0 0.1
2018-May-14 03:58N 33°43' W 118°13'0 0.0
2018-May-14 03:28N 33°43' W 118°13'0 0.1
2018-May-14 02:58N 33°43' W 118°13'0 0.0
2018-May-14 02:28N 33°43' W 118°13'0 0.1
2018-May-14 01:58N 33°43' W 118°13'0 0.1
2018-May-14 01:28N 33°43' W 118°13'0 0.1
2018-May-14 00:58N 33°43' W 118°13'0 0.0
2018-May-14 00:28N 33°43' W 118°13'0 0.2
2018-May-13 23:58N 33°43' W 118°13'0 0.1
2018-May-13 23:28N 33°43' W 118°13'0 0.1
2018-May-13 22:58N 33°43' W 118°13'0 0.0
2018-May-13 22:28N 33°43' W 118°13'0 0.1
2018-May-13 21:58N 33°43' W 118°13'0 0.1
2018-May-13 21:28N 33°43' W 118°13'0 0.0
2018-May-13 20:58N 33°43' W 118°13'0 0.0
2018-May-13 20:28N 33°43' W 118°13'0 0.0
2018-May-13 19:58N 33°43' W 118°13'0 0.0
2018-May-13 19:28N 33°43' W 118°13'0 0.0
2018-May-13 18:58N 33°43' W 118°13'0 0.0
2018-May-13 18:28N 33°43' W 118°13'0 0.0
2018-May-13 17:58N 33°43' W 118°13'0 0.0
2018-May-13 17:25N 33°43' W 118°13'0 0.0
2018-May-13 16:58N 33°43' W 118°13'0 0.1
2018-May-13 16:28N 33°43' W 118°13'0 0.1
2018-May-13 15:58N 33°43' W 118°13'0 0.0
2018-May-13 15:28N 33°43' W 118°13'0 0.0
2018-May-13 14:58N 33°43' W 118°13'0 0.0
2018-May-13 14:28N 33°43' W 118°13'0 0.0
2018-May-13 13:58N 33°43' W 118°13'0 0.0
2018-May-13 13:28N 33°43' W 118°13'0 0.0
2018-May-13 12:58N 33°43' W 118°13'0 0.0
2018-May-13 12:28N 33°43' W 118°13'0 0.1
2018-May-13 11:58N 33°43' W 118°13'0 0.0
2018-May-13 11:28N 33°43' W 118°13'0 0.0
2018-May-13 10:58N 33°43' W 118°13'0 0.0
2018-May-13 10:28N 33°43' W 118°13'0 0.0
2018-May-13 09:58N 33°43' W 118°13'0 0.0
2018-May-13 09:28N 33°43' W 118°13'0 0.0
2018-May-13 08:55N 33°43' W 118°13'0 0.1
2018-May-13 08:28N 33°43' W 118°13'0 0.5
2018-May-13 08:00N 33°42' W 118°13'2 4.3
2018-May-13 07:30N 33°40' W 118°12'2610.8
2018-May-13 05:08N 33°17' W 117°60'111.4
2018-May-13 05:00N 33°16' W 117°59'611.8
2018-May-13 04:30N 33°11' W 117°54'611.9
2018-May-13 04:00N 33°07' W 117°49'612.9
2018-May-13 03:30N 33°02' W 117°44'612.7
2018-May-13 03:00N 32°58' W 117°39'612.7
2018-May-13 02:30N 32°53' W 117°34'612.2
2018-May-13 02:00N 32°48' W 117°29'611.4
2018-May-13 01:30N 32°44' W 117°24'611.4
2018-May-13 01:00N 32°40' W 117°20'11 0.5
2018-May-12 01:15N 32°39' W 117°07'5 4.2
2018-May-11 23:57N 32°40' W 117°14'6 0.6
2018-May-11 13:03N 32°38' W 117°21'010.1
2018-May-11 13:00N 32°38' W 117°21'510.5
2018-May-11 12:30N 32°41' W 117°27'611.2
2018-May-11 12:00N 32°43' W 117°32'611.2
2018-May-11 11:30N 32°46' W 117°38'611.0
2018-May-11 11:00N 32°48' W 117°44'4 8.4
2018-May-11 10:30N 32°50' W 117°49'611.9
2018-May-11 10:00N 32°52' W 117°55'611.6
2018-May-11 09:29N 32°55' W 118°02'611.9
2018-May-11 09:00N 32°58' W 118°08'612.1
2018-May-11 08:30N 33°00' W 118°14'3512.3
2018-May-11 05:39N 33°14' W 118°53'212.7
2018-May-11 05:30N 33°15' W 118°55'612.9
2018-May-11 05:00N 33°17' W 119°02'612.9
2018-May-11 04:30N 33°19' W 119°09'712.9
2018-May-11 04:00N 33°22' W 119°17'713.1
2018-May-11 03:30N 33°24' W 119°24'712.9
2018-May-11 03:00N 33°26' W 119°31'612.9
2018-May-11 02:30N 33°29' W 119°38'612.3
2018-May-11 02:00N 33°30' W 119°45'712.3
2018-May-11 01:27N 33°31' W 119°53'612.2
2018-May-11 00:59N 33°32' W 120°00'612.1
2018-May-11 00:30N 33°33' W 120°07'712.4
2018-May-10 23:55N 33°35' W 120°15'512.8
2018-May-10 23:30N 33°37' W 120°21'612.6
2018-May-10 23:00N 33°40' W 120°28'612.9
2018-May-10 22:30N 33°42' W 120°35'713.0
2018-May-10 22:00N 33°45' W 120°42'713.3
2018-May-10 21:29N 33°48' W 120°50'713.6
2018-May-10 21:00N 33°53' W 120°56'713.6
2018-May-10 20:30N 33°58' W 121°01'613.2
2018-May-10 20:00N 34°03' W 121°05'714.8
2018-May-10 19:30N 34°09' W 121°11'815.1
2018-May-10 19:01N 34°15' W 121°16'815.2
2018-May-10 18:30N 34°21' W 121°22'714.9
2018-May-10 18:00N 34°27' W 121°28'814.8
2018-May-10 17:30N 34°32' W 121°34'714.8
2018-May-10 17:00N 34°38' W 121°39'815.2
2018-May-10 16:30N 34°44' W 121°45'815.2
2018-May-10 16:00N 34°50' W 121°51'18114.7
2018-May-10 03:40N 37°29' W 123°39'315.3
2018-May-10 03:26N 37°32' W 123°41'715.3
2018-May-10 03:00N 37°38' W 123°44'815.3
2018-May-10 02:31N 37°45' W 123°47'815.3
2018-May-10 02:00N 37°52' W 123°50'815.4
2018-May-10 01:31N 37°60' W 123°53'815.2
2018-May-10 01:00N 38°07' W 123°56'815.6
2018-May-10 00:30N 38°14' W 123°59'815.3
2018-May-10 00:00N 38°22' W 124°03'714.8
2018-May-09 23:30N 38°28' W 124°06'814.8
2018-May-09 22:57N 38°36' W 124°10'39215.9
2018-May-08 22:15N 45°05' W 125°18'0 0.3
2018-May-08 21:56N 45°05' W 125°18'715.5
2018-May-08 21:30N 45°12' W 125°19'815.4
2018-May-08 21:00N 45°19' W 125°19'815.5
2018-May-08 20:31N 45°27' W 125°20'815.6
2018-May-08 20:00N 45°35' W 125°20'815.7
2018-May-08 19:30N 45°43' W 125°20'815.6
2018-May-08 19:01N 45°50' W 125°21'815.9
2018-May-08 18:30N 45°58' W 125°22'1016.1
2018-May-08 17:55N 46°08' W 125°22'716.3
2018-May-08 17:30N 46°15' W 125°23'915.9
2018-May-08 16:54N 46°24' W 125°23'816.2
2018-May-08 16:24N 46°32' W 125°24'615.8
2018-May-08 16:00N 46°38' W 125°24'815.7
2018-May-08 15:30N 46°46' W 125°25'815.9
2018-May-08 15:00N 46°54' W 125°25'816.0
2018-May-08 14:29N 47°02' W 125°26'1220.9
2018-May-08 13:55N 47°14' W 125°27'4 9.1
2018-May-08 13:31N 47°18' W 125°27'815.8
2018-May-08 13:00N 47°26' W 125°27'815.7
2018-May-08 12:31N 47°34' W 125°28'815.9
2018-May-08 12:01N 47°42' W 125°29'816.1
2018-May-08 11:30N 47°50' W 125°29'816.1
2018-May-08 11:00N 47°58' W 125°30'816.1
2018-May-08 10:30N 48°05' W 125°25'1015.9
2018-May-08 09:53N 48°14' W 125°18'616.2
2018-May-08 09:30N 48°19' W 125°13'816.4
2018-May-08 09:00N 48°26' W 125°06'816.0
2018-May-08 08:30N 48°31' W 124°57'816.5
2018-May-08 08:01N 48°31' W 124°45'816.0
2018-May-08 07:31N 48°28' W 124°33'816.3
2018-May-08 07:00N 48°25' W 124°22'815.8
2018-May-08 06:30N 48°21' W 124°11'816.0
2018-May-08 06:00N 48°18' W 124°00'816.3
2018-May-08 05:30N 48°16' W 123°48'816.0
2018-May-08 05:00N 48°15' W 123°36'814.3
2018-May-08 04:25N 48°12' W 123°25'6 8.9
2018-May-08 03:42N 48°10' W 123°16'313.3
2018-May-08 03:27N 48°11' W 123°11'716.1
2018-May-08 02:59N 48°12' W 123°00'916.6
2018-May-08 02:25N 48°11' W 122°46'716.0
2018-May-08 01:59N 48°06' W 122°39'816.6
2018-May-08 01:30N 47°59' W 122°35'816.1
2018-May-08 01:00N 47°52' W 122°28'917.5
2018-May-08 00:30N 47°43' W 122°27'917.8
2018-May-08 00:00N 47°34' W 122°27'917.7
2018-May-07 23:30N 47°26' W 122°23'713.3
2018-May-07 23:00N 47°20' W 122°26'3 6.7
2018-May-07 22:30N 47°16' W 122°24'2 3.1
2018-May-07 22:00N 47°15' W 122°23'0 0.3
2018-May-07 21:30N 47°16' W 122°23'0 0.0
2018-May-07 21:00N 47°16' W 122°23'0 0.0
2018-May-07 18:42N 47°16' W 122°23'0 0.0
2018-May-07 18:30N 47°16' W 122°23'0 0.0
2018-May-07 17:54N 47°16' W 122°23'0 0.0
2018-May-07 17:27N 47°16' W 122°23'0 0.0
2018-May-07 17:00N 47°16' W 122°23'0 0.0
2018-May-07 16:27N 47°16' W 122°23'0 0.0
2018-May-07 15:57N 47°16' W 122°23'0 0.0
2018-May-07 15:27N 47°16' W 122°23'0 0.0
2018-May-07 15:00N 47°16' W 122°23'0 0.0
2018-May-07 14:27N 47°16' W 122°23'0 0.0
2018-May-07 14:00N 47°16' W 122°23'0 0.1
2018-May-07 13:24N 47°16' W 122°23'1 2.3
2018-May-07 13:00N 47°16' W 122°24'2 3.9
2018-May-07 12:31N 47°17' W 122°26'5 9.0
2018-May-07 12:00N 47°22' W 122°24'612.1
2018-May-07 11:31N 47°28' W 122°25'917.3
2018-May-07 11:01N 47°36' W 122°28'816.8
2018-May-07 10:31N 47°45' W 122°27'816.6
2018-May-07 10:00N 47°53' W 122°29'815.3
2018-May-07 09:30N 47°59' W 122°36'1015.4
2018-May-07 08:52N 48°08' W 122°42'615.8
2018-May-07 08:29N 48°11' W 122°50'917.2
2018-May-07 07:58N 48°12' W 123°03'816.2
2018-May-07 07:28N 48°11' W 123°15'17 9.9
2018-May-07 05:47N 48°13' W 123°40'3 9.5
2018-May-07 05:26N 48°13' W 123°45'4 9.8
2018-May-07 05:00N 48°13' W 123°51'713.1
2018-May-07 04:29N 48°15' W 124°01'713.8
2018-May-07 04:00N 48°18' W 124°10'714.2
2018-May-07 03:30N 48°21' W 124°20'714.0
2018-May-07 03:00N 48°24' W 124°29'713.9
2018-May-07 02:30N 48°27' W 124°39'713.6
2018-May-07 02:00N 48°29' W 124°48'713.1
2018-May-07 01:30N 48°29' W 124°58'713.2
2018-May-07 01:00N 48°29' W 125°08'713.0
2018-May-07 00:30N 48°28' W 125°18'613.0
2018-May-07 00:01N 48°28' W 125°28'613.0
2018-May-06 23:31N 48°29' W 125°38'612.9
2018-May-06 23:00N 48°29' W 125°47'612.9
2018-May-06 22:30N 48°29' W 125°57'713.4
2018-May-06 22:00N 48°29' W 126°07'713.3
2018-May-06 21:31N 48°29' W 126°17'610.9
2018-May-06 21:00N 48°29' W 126°26'0 0.5
2018-May-06 20:31N 48°29' W 126°25'1 1.1
2018-May-06 20:01N 48°28' W 126°25'4 7.8
2018-May-06 19:31N 48°26' W 126°30'713.0
2018-May-06 19:00N 48°24' W 126°39'712.7
2018-May-06 18:29N 48°24' W 126°49'613.2
2018-May-06 18:00N 48°25' W 126°58'613.0
2018-May-06 17:31N 48°27' W 127°08'713.5
2018-May-06 16:59N 48°28' W 127°18'  

Dump ship's entire track history